createdAt,value
2022-11-25T00:01:15.159Z,3.40
2022-11-25T00:03:43.026Z,7.15
2022-11-25T00:06:15.421Z,5.07
2022-11-25T00:08:46.250Z,4.35
2022-11-25T00:11:14.037Z,6.07
2022-11-25T00:13:41.507Z,8.52
2022-11-25T00:16:19.098Z,6.03
2022-11-25T00:18:48.106Z,5.78
2022-11-25T00:21:19.408Z,6.30
2022-11-25T00:23:51.457Z,5.45
2022-11-25T00:26:17.974Z,8.40
2022-11-25T00:28:46.315Z,9.65
2022-11-25T00:31:17.044Z,12.77
2022-11-25T00:33:44.140Z,14.10
2022-11-25T00:36:17.777Z,10.48
2022-11-25T00:41:32.649Z,7.80
2022-11-25T00:44:17.919Z,5.63
2022-11-25T00:46:44.414Z,4.05
2022-11-25T00:49:10.907Z,5.93
2022-11-25T00:51:37.499Z,5.05
2022-11-25T00:54:04.133Z,4.50
2022-11-25T00:56:30.573Z,4.93
2022-11-25T00:58:57.398Z,4.30
2022-11-25T01:01:26.770Z,4.40
2022-11-25T01:03:53.700Z,4.15
2022-11-25T01:06:23.841Z,3.60
2022-11-25T01:08:50.599Z,4.18
2022-11-25T01:11:21.182Z,4.45
2022-11-25T01:13:50.948Z,4.75
2022-11-25T01:16:19.394Z,5.10
2022-11-25T01:18:46.185Z,4.18
2022-11-25T01:21:18.702Z,4.30
2022-11-25T01:23:46.076Z,5.60
2022-11-25T01:26:16.290Z,3.92
2022-11-25T01:28:42.985Z,3.47
2022-11-25T01:31:20.518Z,4.07
2022-11-25T01:33:48.562Z,5.07
2022-11-25T01:36:17.731Z,4.30
2022-11-25T01:38:45.561Z,4.18
2022-11-25T01:41:14.022Z,5.30
2022-11-25T01:43:41.411Z,4.35
2022-11-25T01:46:24.888Z,4.95
2022-11-25T01:48:57.940Z,6.80
2022-11-25T01:51:32.893Z,6.53
2022-11-25T01:54:03.450Z,5.22
2022-11-25T01:56:38.147Z,4.00
2022-11-25T01:59:04.720Z,3.40
2022-11-25T02:01:31.266Z,5.28
2022-11-25T02:03:59.291Z,8.23
2022-11-25T02:06:37.820Z,11.02
2022-11-25T02:09:10.834Z,7.15
2022-11-25T02:11:41.800Z,5.38
2022-11-25T02:14:09.276Z,4.63
2022-11-25T02:16:35.691Z,3.55
2022-11-25T02:19:03.576Z,5.57
2022-11-25T02:21:39.558Z,4.50
2022-11-25T02:24:39.920Z,4.13
2022-11-25T02:27:07.054Z,5.00
2022-11-25T02:29:34.306Z,3.67
2022-11-25T02:32:00.835Z,4.28
2022-11-25T02:34:27.373Z,3.45
2022-11-25T02:36:53.923Z,4.35
2022-11-25T02:39:21.418Z,5.15
2022-11-25T02:41:51.876Z,5.78
2022-11-25T02:44:18.542Z,4.05
2022-11-25T02:46:45.031Z,4.60
2022-11-25T02:49:11.529Z,3.90
2022-11-25T02:51:43.775Z,3.95
2022-11-25T02:54:11.723Z,4.72
2022-11-25T02:56:38.525Z,5.10
2022-11-25T02:59:05.128Z,8.02
2022-11-25T03:01:32.670Z,6.00
2022-11-25T03:03:59.539Z,12.93
2022-11-25T03:06:28.555Z,6.78
2022-11-25T03:08:55.654Z,6.28
2022-11-25T03:11:42.230Z,6.75
2022-11-25T03:14:08.718Z,6.00
2022-11-25T03:16:35.236Z,6.38
2022-11-25T03:19:01.726Z,6.30
2022-11-25T03:21:28.163Z,5.55
2022-11-25T03:23:54.551Z,6.43
2022-11-25T03:26:21.363Z,6.40
2022-11-25T03:28:47.843Z,4.13
2022-11-25T03:31:14.360Z,4.57
2022-11-25T03:33:40.786Z,4.78
2022-11-25T03:36:07.453Z,4.72
2022-11-25T03:38:33.891Z,4.15
2022-11-25T03:41:00.266Z,4.32
2022-11-25T03:43:26.722Z,4.65
2022-11-25T03:45:53.214Z,4.68
2022-11-25T03:48:21.914Z,5.32
2022-11-25T03:50:49.388Z,5.38
2022-11-25T03:53:15.809Z,5.60
2022-11-25T03:55:42.197Z,4.45
2022-11-25T03:58:08.645Z,5.00
2022-11-25T04:00:35.662Z,5.43
2022-11-25T04:03:02.487Z,4.75
2022-11-25T04:05:28.955Z,9.30
2022-11-25T04:07:58.062Z,4.78
2022-11-25T04:10:24.829Z,6.28
2022-11-25T04:12:52.443Z,6.50
2022-11-25T04:15:18.979Z,8.77
2022-11-25T04:17:45.540Z,6.07
2022-11-25T04:20:15.091Z,7.00
2022-11-25T04:22:41.600Z,5.43
2022-11-25T04:25:11.576Z,6.95
2022-11-25T04:27:38.062Z,6.47
2022-11-25T04:30:05.980Z,6.88
2022-11-25T04:32:32.441Z,4.40
2022-11-25T04:34:58.934Z,4.35
2022-11-25T04:37:25.380Z,4.97
2022-11-25T04:39:51.809Z,4.50
2022-11-25T04:42:34.292Z,3.47
2022-11-25T04:47:50.630Z,4.28
2022-11-25T04:50:19.898Z,3.97
2022-11-25T04:52:48.851Z,5.53
2022-11-25T04:55:15.416Z,3.97
2022-11-25T04:57:41.860Z,6.82
2022-11-25T05:00:09.521Z,5.38
2022-11-25T05:02:36.003Z,3.70
2022-11-25T05:05:02.478Z,4.95
2022-11-25T05:07:29.262Z,4.78
2022-11-25T05:09:56.762Z,5.45
2022-11-25T05:12:29.519Z,4.10
2022-11-25T05:14:56.333Z,4.65
2022-11-25T05:17:25.888Z,4.85
2022-11-25T05:19:52.451Z,4.82
2022-11-25T05:22:22.286Z,5.30
2022-11-25T05:24:48.821Z,4.32
2022-11-25T05:27:16.280Z,6.03
2022-11-25T05:29:42.913Z,11.43
2022-11-25T05:32:09.491Z,9.70
2022-11-25T05:34:38.259Z,14.38
2022-11-25T05:37:05.420Z,12.15
2022-11-25T05:39:31.858Z,18.98
2022-11-25T05:41:58.490Z,35.42
2022-11-25T05:44:25.148Z,29.08
2022-11-25T05:46:51.993Z,34.92
2022-11-25T05:49:21.752Z,31.75
2022-11-25T05:51:48.466Z,21.77
2022-11-25T05:54:15.324Z,18.70
2022-11-25T05:56:41.798Z,15.82
2022-11-25T05:59:08.319Z,12.27
2022-11-25T06:01:34.853Z,9.70
2022-11-25T06:04:02.768Z,9.70
2022-11-25T06:06:29.742Z,9.32
2022-11-25T06:08:56.363Z,5.78
2022-11-25T06:11:23.070Z,6.45
2022-11-25T06:13:49.565Z,5.40
2022-11-25T06:16:23.330Z,4.60
2022-11-25T06:18:50.603Z,8.65
2022-11-25T06:21:18.045Z,12.32
2022-11-25T06:23:47.065Z,13.48
2022-11-25T06:26:20.243Z,10.07
2022-11-25T06:28:47.913Z,11.57
2022-11-25T06:31:16.900Z,10.48
2022-11-25T06:33:46.670Z,9.00
2022-11-25T06:36:16.998Z,16.48
2022-11-25T06:38:49.763Z,31.45
2022-11-25T06:41:16.889Z,19.73
2022-11-25T06:43:43.666Z,12.55
2022-11-25T06:46:14.071Z,10.15
2022-11-25T06:48:43.108Z,15.27
2022-11-25T06:51:14.427Z,12.38
2022-11-25T06:53:41.299Z,5.15
2022-11-25T06:56:13.414Z,5.10
2022-11-25T06:58:40.467Z,6.53
2022-11-25T07:01:11.805Z,15.88
2022-11-25T07:03:39.272Z,8.68
2022-11-25T07:06:06.159Z,6.68
2022-11-25T07:08:35.457Z,7.75
2022-11-25T07:11:05.614Z,7.85
2022-11-25T07:13:32.891Z,10.40
2022-11-25T07:16:06.812Z,10.70
2022-11-25T07:18:36.117Z,12.32
2022-11-25T07:21:07.191Z,15.50
2022-11-25T07:23:35.372Z,31.95
2022-11-25T07:26:10.712Z,20.70
2022-11-25T07:28:37.569Z,18.85
2022-11-25T07:31:24.761Z,16.77
2022-11-25T07:33:58.755Z,15.40
2022-11-25T07:36:26.110Z,12.98
2022-11-25T07:38:53.126Z,8.77
2022-11-25T07:41:23.149Z,9.20
2022-11-25T07:43:57.862Z,14.95
2022-11-25T07:46:29.775Z,9.13
2022-11-25T07:48:59.319Z,8.32
2022-11-25T07:51:35.046Z,10.10
2022-11-25T07:54:03.749Z,9.98
2022-11-25T07:56:30.794Z,10.32
2022-11-25T07:58:57.646Z,10.45
2022-11-25T08:01:24.993Z,21.20
2022-11-25T08:03:52.025Z,10.68
2022-11-25T08:06:21.900Z,6.80
2022-11-25T08:08:48.898Z,5.57
2022-11-25T08:11:20.359Z,5.70
2022-11-25T08:13:49.793Z,6.60
2022-11-25T08:16:19.109Z,6.00
2022-11-25T08:18:46.043Z,7.88
2022-11-25T08:21:16.653Z,6.35
2022-11-25T08:23:44.062Z,7.93
2022-11-25T08:26:14.223Z,7.70
2022-11-25T08:28:41.789Z,7.65
2022-11-25T08:31:11.943Z,9.30
2022-11-25T08:33:38.561Z,6.20
2022-11-25T08:36:10.373Z,5.63
2022-11-25T08:38:37.374Z,5.85
2022-11-25T08:41:08.723Z,8.40
2022-11-25T08:43:35.107Z,7.18
2022-11-25T08:46:01.631Z,5.47
2022-11-25T08:48:28.101Z,6.18
2022-11-25T08:50:54.911Z,6.75
2022-11-25T08:53:23.974Z,6.35
2022-11-25T08:55:50.554Z,5.40
2022-11-25T08:58:17.130Z,4.78
2022-11-25T09:00:44.764Z,4.80
2022-11-25T09:03:11.914Z,5.20
2022-11-25T09:05:42.967Z,5.35
2022-11-25T09:08:10.662Z,8.35
2022-11-25T09:10:39.150Z,6.03
2022-11-25T09:13:05.943Z,5.15
2022-11-25T09:15:32.798Z,5.40
2022-11-25T09:18:01.951Z,5.15
2022-11-25T09:20:28.593Z,6.60
2022-11-25T09:22:58.419Z,5.30
2022-11-25T09:25:24.840Z,4.43
2022-11-25T09:27:51.355Z,4.53
2022-11-25T09:30:17.985Z,3.58
2022-11-25T09:32:48.018Z,3.75
2022-11-25T09:35:17.345Z,4.15
2022-11-25T09:37:43.784Z,5.55
2022-11-25T09:40:37.803Z,5.28
2022-11-25T09:44:10.039Z,7.18
2022-11-25T09:46:57.657Z,5.50
2022-11-25T09:49:30.785Z,5.25
2022-11-25T09:52:22.196Z,5.30
2022-11-25T09:54:58.404Z,5.43
2022-11-25T09:57:36.839Z,3.65
2022-11-25T10:00:11.662Z,5.88
2022-11-25T10:02:45.965Z,6.43
2022-11-25T10:05:15.514Z,5.68
2022-11-25T10:07:46.711Z,4.45
2022-11-25T10:10:25.886Z,4.65
2022-11-25T10:12:56.791Z,5.35
2022-11-25T10:15:34.610Z,5.72
2022-11-25T10:18:06.866Z,5.88
2022-11-25T10:20:37.954Z,4.85
2022-11-25T10:23:10.963Z,4.80
2022-11-25T10:25:53.805Z,7.28
2022-11-25T10:28:25.303Z,7.07
2022-11-25T10:31:01.068Z,4.68
2022-11-25T10:33:34.330Z,4.78
2022-11-25T10:36:03.884Z,5.97
2022-11-25T10:38:37.321Z,4.82
2022-11-25T10:41:04.620Z,8.23
2022-11-25T10:43:33.720Z,4.53
2022-11-25T10:46:57.452Z,5.18
2022-11-25T10:49:38.373Z,4.47
2022-11-25T10:52:12.233Z,5.22
2022-11-25T10:54:38.738Z,6.38
2022-11-25T10:57:21.485Z,4.82
2022-11-25T10:59:59.192Z,5.57
2022-11-25T11:02:30.473Z,9.07
2022-11-25T11:05:04.584Z,8.05
2022-11-25T11:07:34.249Z,8.23
2022-11-25T11:10:27.192Z,5.68
2022-11-25T11:13:18.076Z,7.07
2022-11-25T11:15:47.397Z,7.68
2022-11-25T11:18:30.655Z,5.22
2022-11-25T11:20:59.396Z,5.87
2022-11-25T11:23:28.388Z,5.25
2022-11-25T11:26:04.860Z,4.97
2022-11-25T11:28:34.927Z,5.15
2022-11-25T11:31:04.604Z,6.90
2022-11-25T11:33:43.375Z,4.72
2022-11-25T11:36:13.144Z,7.20
2022-11-25T11:38:50.266Z,5.72
2022-11-25T11:41:27.951Z,7.53
2022-11-25T11:43:57.478Z,7.97
2022-11-25T11:47:05.403Z,7.90
2022-11-25T11:49:56.657Z,6.68
2022-11-25T11:53:01.790Z,5.47
2022-11-25T11:56:18.879Z,8.30
2022-11-25T11:58:52.305Z,5.07
2022-11-25T12:01:41.925Z,9.27
2022-11-25T12:04:50.187Z,7.60
2022-11-25T12:07:29.623Z,7.80
2022-11-25T12:10:02.443Z,23.65
2022-11-25T12:12:58.252Z,22.52
2022-11-25T12:15:33.185Z,12.85
2022-11-25T12:18:04.254Z,5.28
2022-11-25T12:21:05.363Z,6.93
2022-11-25T12:23:48.850Z,7.88
2022-11-25T12:26:24.445Z,5.35
2022-11-25T12:29:05.834Z,4.97
2022-11-25T12:31:42.131Z,7.82
2022-11-25T12:34:34.640Z,4.95
2022-11-25T12:37:15.183Z,4.07
2022-11-25T12:39:52.545Z,5.90
2022-11-25T12:42:25.466Z,5.53
2022-11-25T12:45:10.293Z,8.20
2022-11-25T12:47:36.773Z,6.53
2022-11-25T12:50:05.809Z,5.85
2022-11-25T12:52:53.593Z,6.97
2022-11-25T12:55:29.964Z,5.45
2022-11-25T12:58:14.118Z,7.55
2022-11-25T13:01:03.302Z,9.50
2022-11-25T13:03:48.055Z,5.60
2022-11-25T13:06:52.053Z,7.80
2022-11-25T13:10:00.320Z,8.45
2022-11-25T13:12:45.847Z,11.80
2022-11-25T13:15:26.443Z,15.73
2022-11-25T13:18:08.279Z,7.00
2022-11-25T13:20:48.457Z,8.23
2022-11-25T13:23:17.875Z,6.38
2022-11-25T13:25:46.461Z,7.47
2022-11-25T13:28:32.441Z,12.50
2022-11-25T13:31:14.441Z,6.45
2022-11-25T13:33:44.067Z,6.85
2022-11-25T13:36:16.702Z,8.18
2022-11-25T13:39:05.671Z,6.78
2022-11-25T13:41:37.089Z,8.20
2022-11-25T13:44:11.263Z,10.73
2022-11-25T13:46:47.739Z,8.40
2022-11-25T13:49:22.356Z,11.38
2022-11-25T13:51:53.993Z,7.00
2022-11-25T13:54:26.815Z,7.07
2022-11-25T13:57:25.654Z,10.27
2022-11-25T13:59:55.444Z,13.00
2022-11-25T14:02:28.312Z,10.35
2022-11-25T14:05:19.631Z,5.82
2022-11-25T14:07:58.492Z,5.82
2022-11-25T14:10:46.222Z,7.53
2022-11-25T14:13:31.763Z,8.57
2022-11-25T14:16:21.043Z,10.43
2022-11-25T14:19:35.026Z,9.13
2022-11-25T14:21:52.313Z,9.65
2022-11-25T14:24:28.597Z,10.95
2022-11-25T14:26:57.728Z,14.32
2022-11-25T14:29:51.992Z,10.45
2022-11-25T14:32:32.445Z,15.23
2022-11-25T14:35:14.466Z,10.25
2022-11-25T14:37:47.009Z,9.70
2022-11-25T14:40:30.349Z,10.00
2022-11-25T14:43:05.096Z,8.63
2022-11-25T14:45:34.609Z,9.38
2022-11-25T14:48:13.770Z,11.48
2022-11-25T14:50:41.608Z,13.85
2022-11-25T14:53:10.045Z,26.67
2022-11-25T14:55:39.132Z,18.20
2022-11-25T14:58:05.708Z,14.27
2022-11-25T15:00:34.598Z,17.58
2022-11-25T15:03:04.843Z,33.20
2022-11-25T15:05:36.330Z,82.60
2022-11-25T15:08:12.017Z,95.18
2022-11-25T15:10:55.780Z,74.18
2022-11-25T15:13:43.768Z,75.82
2022-11-25T15:16:25.318Z,70.43
2022-11-25T15:18:56.000Z,39.00
2022-11-25T15:22:07.010Z,22.90
2022-11-25T15:24:32.700Z,20.98
2022-11-25T15:27:03.132Z,26.88
2022-11-25T15:29:31.274Z,41.13
2022-11-25T15:32:02.266Z,47.83
2022-11-25T15:34:29.705Z,39.92
2022-11-25T15:36:56.271Z,32.10
2022-11-25T15:39:25.953Z,24.90
2022-11-25T15:41:56.351Z,12.20
2022-11-25T15:44:26.808Z,10.13
2022-11-25T15:47:02.919Z,11.18
2022-11-25T15:49:32.926Z,9.30
2022-11-25T15:52:05.827Z,9.60
2022-11-25T15:54:42.889Z,9.60
2022-11-25T15:57:31.597Z,11.05
2022-11-25T15:59:58.047Z,9.25
2022-11-25T16:02:39.748Z,16.10
2022-11-25T16:05:12.148Z,11.68
2022-11-25T16:07:51.260Z,11.57
2022-11-25T16:10:34.477Z,12.65
2022-11-25T16:13:29.068Z,12.40
2022-11-25T16:16:10.248Z,12.90
2022-11-25T16:18:58.009Z,12.82
2022-11-25T16:21:41.944Z,10.07
2022-11-25T16:24:23.727Z,10.10
2022-11-25T16:26:53.236Z,11.90
2022-11-25T16:29:37.217Z,11.75
2022-11-25T16:32:16.199Z,15.57
2022-11-25T16:34:43.429Z,18.17
2022-11-25T16:37:10.032Z,20.45
2022-11-25T16:39:40.577Z,14.27
2022-11-25T16:42:10.259Z,14.40
2022-11-25T16:44:42.152Z,14.55
2022-11-25T16:47:10.814Z,14.80
2022-11-25T16:49:37.344Z,17.60
2022-11-25T16:52:04.252Z,19.45
2022-11-25T16:54:31.629Z,18.65
2022-11-25T16:56:58.416Z,24.08
2022-11-25T16:59:36.918Z,22.67
2022-11-25T17:02:11.663Z,24.50
2022-11-25T17:04:40.755Z,23.70
2022-11-25T17:07:31.751Z,23.65
2022-11-25T17:09:58.969Z,16.38
2022-11-25T17:12:30.963Z,16.33
2022-11-25T17:14:59.816Z,20.77
2022-11-25T17:17:27.153Z,18.17
2022-11-25T17:19:56.569Z,21.63
2022-11-25T17:22:26.577Z,31.40
2022-11-25T17:24:54.079Z,35.20
2022-11-25T17:27:38.645Z,29.10
2022-11-25T17:30:17.804Z,29.52
2022-11-25T17:32:47.019Z,39.03
2022-11-25T17:35:20.954Z,35.63
2022-11-25T17:37:48.207Z,34.42
2022-11-25T17:40:17.352Z,34.40
2022-11-25T17:42:46.063Z,30.92
2022-11-25T17:45:17.293Z,26.63
2022-11-25T17:47:44.897Z,26.50
2022-11-25T17:50:25.543Z,50.33
2022-11-25T17:52:52.774Z,26.85
2022-11-25T17:55:21.924Z,29.95
2022-11-25T17:57:52.084Z,44.80
2022-11-25T18:00:21.394Z,39.22
2022-11-25T18:02:48.450Z,36.67
2022-11-25T18:05:21.120Z,35.03
2022-11-25T18:07:48.146Z,29.15
2022-11-25T18:10:17.059Z,28.33
2022-11-25T18:12:46.268Z,27.52
2022-11-25T18:15:22.517Z,24.23
2022-11-25T18:17:53.548Z,27.75
2022-11-25T18:20:23.225Z,23.90
2022-11-25T18:22:51.429Z,25.73
2022-11-25T18:25:22.348Z,64.57
2022-11-25T18:27:54.099Z,101.32
2022-11-25T18:30:24.374Z,68.70
2022-11-25T18:32:51.297Z,39.10
2022-11-25T18:35:23.964Z,41.47
2022-11-25T18:37:50.651Z,43.15
2022-11-25T18:40:17.996Z,27.70
2022-11-25T18:42:48.323Z,23.00
2022-11-25T18:45:23.989Z,24.52
2022-11-25T18:47:53.041Z,28.95
2022-11-25T18:50:22.957Z,22.05
2022-11-25T18:52:53.353Z,28.58
2022-11-25T18:55:25.775Z,32.80
2022-11-25T18:57:52.994Z,27.45
2022-11-25T19:00:32.180Z,28.02
2022-11-25T19:03:00.037Z,27.42
2022-11-25T19:05:30.919Z,28.08
2022-11-25T19:07:58.453Z,24.90
2022-11-25T19:10:29.349Z,28.20
2022-11-25T19:13:03.148Z,47.40
2022-11-25T19:18:02.309Z,39.05
2022-11-25T19:20:30.296Z,31.20
2022-11-25T19:23:00.976Z,31.80
2022-11-25T19:25:30.868Z,26.65
2022-11-25T19:27:59.660Z,27.02
2022-11-25T19:30:30.419Z,25.65
2022-11-25T19:32:59.678Z,24.20
2022-11-25T19:35:37.932Z,25.45
2022-11-25T19:38:25.347Z,26.88
2022-11-25T19:40:56.700Z,26.33
2022-11-25T19:43:27.106Z,20.40
2022-11-25T19:45:55.683Z,23.00
2022-11-25T19:48:22.823Z,17.48
2022-11-25T19:50:59.772Z,15.55
2022-11-25T19:53:33.530Z,15.38
2022-11-25T19:56:04.208Z,15.02
2022-11-25T19:58:31.324Z,14.40
2022-11-25T20:01:02.912Z,14.43
2022-11-25T20:03:31.190Z,11.30
2022-11-25T20:05:58.620Z,12.57
2022-11-25T20:08:28.184Z,12.35
2022-11-25T20:10:56.714Z,11.80
2022-11-25T20:13:24.643Z,14.38
2022-11-25T20:15:52.578Z,11.77
2022-11-25T20:18:26.163Z,9.55
2022-11-25T20:20:59.876Z,8.52
2022-11-25T20:25:56.589Z,10.32
2022-11-25T20:28:30.080Z,11.63
2022-11-25T20:31:00.181Z,13.73
2022-11-25T20:33:27.449Z,10.35
2022-11-25T20:36:04.770Z,11.68
2022-11-25T20:38:36.231Z,10.70
2022-11-25T20:41:06.622Z,9.10
2022-11-25T20:43:39.218Z,9.07
2022-11-25T20:46:07.145Z,8.90
2022-11-25T20:48:37.433Z,10.57
2022-11-25T20:51:12.840Z,9.15
2022-11-25T20:53:43.520Z,9.98
2022-11-25T20:56:13.733Z,10.27
2022-11-25T20:58:40.282Z,7.53
2022-11-25T21:01:07.610Z,11.10
2022-11-25T21:03:34.337Z,8.68
2022-11-25T21:06:01.061Z,9.13
2022-11-25T21:08:30.761Z,11.85
2022-11-25T21:10:59.353Z,12.00
2022-11-25T21:13:28.796Z,15.43
2022-11-25T21:15:58.680Z,13.40
2022-11-25T21:18:25.530Z,10.57
2022-11-25T21:20:53.932Z,11.35
2022-11-25T21:23:25.031Z,10.35
2022-11-25T21:25:56.734Z,12.02
2022-11-25T21:28:29.999Z,11.45
2022-11-25T21:30:56.720Z,11.73
2022-11-25T21:33:23.428Z,13.02
2022-11-25T21:35:53.262Z,14.57
2022-11-25T21:38:24.979Z,15.68
2022-11-25T21:40:53.777Z,11.60
2022-11-25T21:43:42.696Z,12.85
2022-11-25T21:46:14.393Z,17.08
2022-11-25T21:48:40.949Z,13.70
2022-11-25T21:51:10.482Z,13.02
2022-11-25T21:53:37.635Z,14.68
2022-11-25T21:56:12.807Z,14.02
2022-11-25T21:58:40.748Z,14.63
2022-11-25T22:01:10.604Z,20.00
2022-11-25T22:03:37.274Z,14.38
2022-11-25T22:06:03.959Z,12.13
2022-11-25T22:08:32.797Z,13.50
2022-11-25T22:10:59.511Z,13.95
2022-11-25T22:13:35.570Z,18.65
2022-11-25T22:16:04.859Z,16.48
2022-11-25T22:18:34.787Z,15.38
2022-11-25T22:21:02.312Z,18.10
2022-11-25T22:23:28.858Z,19.95
2022-11-25T22:25:55.956Z,13.45
2022-11-25T22:28:26.140Z,13.35
2022-11-25T22:30:55.903Z,14.43
2022-11-25T22:33:28.953Z,10.93
2022-11-25T22:35:55.447Z,17.70
2022-11-25T22:38:22.441Z,11.52
2022-11-25T22:40:59.232Z,12.68
2022-11-25T22:43:29.329Z,13.38
2022-11-25T22:45:56.687Z,12.40
2022-11-25T22:48:31.254Z,12.90
2022-11-25T22:50:57.853Z,13.85
2022-11-25T22:53:26.123Z,15.13
2022-11-25T22:55:56.827Z,15.00
2022-11-25T22:58:24.546Z,12.80
2022-11-25T23:00:52.200Z,15.27
2022-11-25T23:03:20.217Z,13.75
2022-11-25T23:05:48.112Z,17.08
2022-11-25T23:08:19.658Z,15.10
2022-11-25T23:10:47.492Z,20.27
2022-11-25T23:13:17.039Z,14.18
2022-11-25T23:15:47.933Z,15.50
2022-11-25T23:18:24.603Z,15.07
2022-11-25T23:20:51.093Z,19.35
2022-11-25T23:23:31.820Z,16.40
2022-11-25T23:25:58.712Z,15.00
2022-11-25T23:28:25.587Z,15.25
2022-11-25T23:30:54.898Z,12.73
2022-11-25T23:33:40.469Z,13.25
2022-11-25T23:36:14.313Z,12.40
2022-11-25T23:38:48.936Z,14.25
2022-11-25T23:41:18.908Z,14.18
2022-11-25T23:43:48.079Z,12.48
2022-11-25T23:46:16.921Z,15.13
2022-11-25T23:48:47.660Z,10.85
2022-11-25T23:51:14.247Z,11.30
2022-11-25T23:53:41.178Z,11.40
2022-11-25T23:56:08.406Z,8.60
2022-11-25T23:58:34.963Z,13.43
